Time;durP1;ratioP1;P1;durP2;ratioP2;P2;SDS_P1;SDS_P2;PMS_P1;PMS_P2;Temp;Humidity;BMP_temperature;BMP_pressure;BME280_temperature;BME280_humidity;BME280_pressure;Samples;Min_cycle;Max_cycle;Signal;HPM_P1;HPM_P2
2023/12/22 00:03:57;;;;;;;0.80;0.50;;;;;;;;;;8216207;28;21228;-58
2023/12/22 00:07:57;;;;;;;1.17;0.73;;;;;;;;;;8216920;28;20027;-58
2023/12/22 00:11:57;;;;;;;4.70;0.90;;;;;;;;;;8216791;28;20025;-59
2023/12/22 00:15:57;;;;;;;1.30;0.63;;;;;;;;;;8216399;28;20046;-59
2023/12/22 00:20:01;;;;;;;3.28;0.90;;;;;;;;;;8221804;28;20033;-56
2023/12/22 00:24:01;;;;;;;2.53;0.88;;;;;;;;;;8219597;28;20617;-57
2023/12/22 00:28:02;;;;;;;4.82;0.80;;;;;;;;;;8220160;28;20030;-57
2023/12/22 00:32:03;;;;;;;2.97;0.77;;;;;;;;;;8222553;28;20460;-58
2023/12/22 00:36:03;;;;;;;3.78;1.17;;;;;;;;;;8221610;28;20483;-58
2023/12/22 00:40:08;;;;;;;6.07;1.38;;;;;;;;;;8220289;28;20018;-58
2023/12/22 00:44:08;;;;;;;3.60;1.05;;;;;;;;;;8215766;28;20030;-58
2023/12/22 00:48:08;;;;;;;6.00;1.27;;;;;;;;;;8216407;28;20037;-58
2023/12/22 00:52:08;;;;;;;4.07;0.88;;;;;;;;;;8220469;28;20272;-57
2023/12/22 00:56:09;;;;;;;4.30;1.17;;;;;;;;;;8218935;28;20074;-58
2023/12/22 01:00:12;;;;;;;5.80;1.52;;;;;;;;;;8220345;28;20033;-58
2023/12/22 01:04:12;;;;;;;4.50;1.17;;;;;;;;;;8244730;28;20030;-59
2023/12/22 01:08:12;;;;;;;3.95;1.17;;;;;;;;;;8244260;28;20025;-58
2023/12/22 01:12:12;;;;;;;5.47;1.13;;;;;;;;;;8245038;28;20072;-59
2023/12/22 01:16:12;;;;;;;4.57;1.17;;;;;;;;;;8249514;28;20549;-57
2023/12/22 01:20:13;;;;;;;5.80;1.30;;;;;;;;;;8239964;28;20026;-59
2023/12/22 01:24:13;;;;;;;2.67;1.00;;;;;;;;;;8231016;28;20022;-58
2023/12/22 01:28:13;;;;;;;5.13;1.33;;;;;;;;;;8234880;28;20025;-58
2023/12/22 01:32:14;;;;;;;8.98;1.60;;;;;;;;;;8235468;28;20050;-59
2023/12/22 01:36:14;;;;;;;4.40;1.40;;;;;;;;;;8235478;28;20132;-59
2023/12/22 01:40:14;;;;;;;3.13;0.90;;;;;;;;;;8231586;28;20025;-59
2023/12/22 01:44:14;;;;;;;7.13;1.80;;;;;;;;;;8235967;28;20030;-58
2023/12/22 01:48:15;;;;;;;4.78;1.30;;;;;;;;;;8231952;28;20630;-59
2023/12/22 01:52:15;;;;;;;4.75;1.60;;;;;;;;;;8233692;28;20025;-58
2023/12/22 01:56:15;;;;;;;4.43;1.23;;;;;;;;;;8235142;28;20064;-59
2023/12/22 02:00:16;;;;;;;9.73;1.77;;;;;;;;;;8230999;28;20067;-59
2023/12/22 02:04:17;;;;;;;6.97;1.50;;;;;;;;;;8230679;28;20284;-58
2023/12/22 02:08:18;;;;;;;4.30;1.20;;;;;;;;;;8236382;28;20021;-59
2023/12/22 02:12:18;;;;;;;4.45;1.55;;;;;;;;;;8232945;28;20500;-57
2023/12/22 02:16:20;;;;;;;5.88;1.15;;;;;;;;;;8239124;28;20510;-58
2023/12/22 02:20:21;;;;;;;4.50;1.05;;;;;;;;;;8239138;28;21096;-57
2023/12/22 02:24:21;;;;;;;5.78;1.10;;;;;;;;;;8236261;28;20026;-57
2023/12/22 02:28:23;;;;;;;3.45;1.20;;;;;;;;;;8236936;28;20026;-58
2023/12/22 02:32:27;;;;;;;3.15;0.95;;;;;;;;;;8232356;28;20402;-58
2023/12/22 02:36:27;;;;;;;5.88;1.00;;;;;;;;;;8224802;28;20035;-58
2023/12/22 02:40:28;;;;;;;6.55;1.35;;;;;;;;;;8224873;28;20029;-58
2023/12/22 02:44:28;;;;;;;5.65;1.40;;;;;;;;;;8224235;28;20025;-58
2023/12/22 02:48:28;;;;;;;5.37;1.30;;;;;;;;;;8223109;28;20030;-57
2023/12/22 02:52:28;;;;;;;6.55;1.88;;;;;;;;;;8228395;28;20284;-58
2023/12/22 02:56:29;;;;;;;2.10;1.00;;;;;;;;;;8227414;28;20029;-59
2023/12/22 03:00:29;;;;;;;3.20;1.30;;;;;;;;;;8221516;28;20030;-59
2023/12/22 03:04:29;;;;;;;3.65;1.42;;;;;;;;;;8227611;28;20037;-59
2023/12/22 03:08:29;;;;;;;7.47;1.30;;;;;;;;;;8229965;28;20025;-59
2023/12/22 03:12:30;;;;;;;4.68;1.42;;;;;;;;;;8226796;28;20027;-59
2023/12/22 03:16:30;;;;;;;5.50;1.60;;;;;;;;;;8225624;28;20033;-58
2023/12/22 03:20:30;;;;;;;6.90;1.48;;;;;;;;;;8221332;28;20443;-58
2023/12/22 03:24:30;;;;;;;6.18;1.50;;;;;;;;;;8225113;28;20026;-58
2023/12/22 03:28:33;;;;;;;6.18;1.42;;;;;;;;;;8225680;28;20967;-58
2023/12/22 03:32:33;;;;;;;10.80;1.30;;;;;;;;;;8221927;28;20049;-59
2023/12/22 03:36:35;;;;;;;3.63;1.20;;;;;;;;;;8228314;28;20498;-58
2023/12/22 03:40:35;;;;;;;4.97;1.10;;;;;;;;;;8224615;28;20034;-59
2023/12/22 03:44:35;;;;;;;6.75;1.48;;;;;;;;;;8221003;28;20032;-58
2023/12/22 03:48:35;;;;;;;3.15;1.42;;;;;;;;;;8221689;28;20269;-59
2023/12/22 03:52:36;;;;;;;5.75;1.20;;;;;;;;;;8225126;28;20108;-58
2023/12/22 03:56:36;;;;;;;4.82;1.58;;;;;;;;;;8221639;28;21149;-58
2023/12/22 04:00:36;;;;;;;4.78;1.30;;;;;;;;;;8216683;28;20042;-58
2023/12/22 04:04:39;;;;;;;6.72;1.55;;;;;;;;;;8215851;28;20030;-58
2023/12/22 04:08:39;;;;;;;4.85;1.27;;;;;;;;;;8222492;28;20531;-58
2023/12/22 04:12:40;;;;;;;4.20;1.33;;;;;;;;;;8221116;28;20029;-58
2023/12/22 04:16:40;;;;;;;5.07;1.60;;;;;;;;;;8220134;28;20041;-57
2023/12/22 04:20:40;;;;;;;5.00;1.40;;;;;;;;;;8218132;28;20060;-58
2023/12/22 04:24:40;;;;;;;4.50;1.20;;;;;;;;;;8220363;28;20350;-58
2023/12/22 04:28:40;;;;;;;3.75;1.00;;;;;;;;;;8220667;28;20037;-57
2023/12/22 04:32:41;;;;;;;1.80;0.90;;;;;;;;;;8228671;28;20160;-57
2023/12/22 04:36:41;;;;;;;2.00;0.82;;;;;;;;;;8233830;28;20038;-57
2023/12/22 04:40:41;;;;;;;1.98;0.75;;;;;;;;;;8241230;28;20025;-57
2023/12/22 04:44:41;;;;;;;3.15;0.80;;;;;;;;;;8242024;28;20255;-57
2023/12/22 04:48:41;;;;;;;0.70;0.60;;;;;;;;;;8238241;28;20038;-58
2023/12/22 04:52:42;;;;;;;2.10;1.13;;;;;;;;;;8234216;28;20048;-57
2023/12/22 04:56:42;;;;;;;1.23;0.63;;;;;;;;;;8232367;28;20578;-56
2023/12/22 05:00:42;;;;;;;1.20;0.60;;;;;;;;;;8231637;28;20045;-58
2023/12/22 05:04:42;;;;;;;2.70;0.80;;;;;;;;;;8223328;28;20293;-58
2023/12/22 05:08:42;;;;;;;3.70;1.20;;;;;;;;;;8231885;28;20267;-56
2023/12/22 05:12:43;;;;;;;4.35;0.85;;;;;;;;;;8234006;28;20038;-57
2023/12/22 05:16:43;;;;;;;4.60;1.13;;;;;;;;;;8231336;28;20077;-57
2023/12/22 05:20:43;;;;;;;4.35;1.50;;;;;;;;;;8228569;28;20030;-58
2023/12/22 05:24:43;;;;;;;4.47;1.40;;;;;;;;;;8227018;28;20812;-56
2023/12/22 05:28:44;;;;;;;3.40;1.00;;;;;;;;;;8232561;28;20117;-57
2023/12/22 05:32:44;;;;;;;7.28;1.60;;;;;;;;;;8228994;28;20053;-58
2023/12/22 05:36:44;;;;;;;5.87;1.50;;;;;;;;;;8228269;28;20612;-58
2023/12/22 05:40:45;;;;;;;5.70;1.33;;;;;;;;;;8230971;28;20280;-57
2023/12/22 05:44:49;;;;;;;5.27;1.60;;;;;;;;;;8226700;28;20025;-58
2023/12/22 05:48:49;;;;;;;;;;;;;;;;;;8225046;28;20277;-56
2023/12/22 05:52:49;;;;;;;6.95;1.50;;;;;;;;;;8229042;28;19924;-57
2023/12/22 05:56:51;;;;;;;7.50;1.60;;;;;;;;;;8229181;28;20030;-58
2023/12/22 06:00:51;;;;;;;7.18;1.70;;;;;;;;;;8228996;28;20289;-59
2023/12/22 06:04:52;;;;;;;8.20;1.40;;;;;;;;;;8227042;28;20545;-59
2023/12/22 06:08:52;;;;;;;6.63;2.03;;;;;;;;;;8225205;28;20133;-59
2023/12/22 06:12:52;;;;;;;5.53;1.48;;;;;;;;;;8231237;28;20273;-59
2023/12/22 06:16:53;;;;;;;4.47;1.43;;;;;;;;;;8230730;28;20096;-60
2023/12/22 06:20:54;;;;;;;4.25;1.20;;;;;;;;;;8227700;28;20033;-59
2023/12/22 06:24:54;;;;;;;6.22;1.70;;;;;;;;;;8227387;28;20152;-58
2023/12/22 06:28:54;;;;;;;7.05;1.45;;;;;;;;;;8230127;28;20030;-59
2023/12/22 06:32:54;;;;;;;5.32;2.05;;;;;;;;;;8190165;28;1049013;-59
2023/12/22 06:36:55;;;;;;;5.97;1.65;;;;;;;;;;8229114;28;20022;-59
2023/12/22 06:40:55;;;;;;;7.70;1.65;;;;;;;;;;8224290;28;20110;-60
2023/12/22 06:44:55;;;;;;;6.45;1.55;;;;;;;;;;8225012;28;20061;-60
2023/12/22 06:48:56;;;;;;;5.90;1.67;;;;;;;;;;8226021;28;20489;-59
2023/12/22 06:52:56;;;;;;;8.95;1.52;;;;;;;;;;8234449;28;20033;-58
2023/12/22 06:56:56;;;;;;;5.28;1.02;;;;;;;;;;8243127;28;20035;-59
2023/12/22 07:00:56;;;;;;;3.77;0.97;;;;;;;;;;8240396;28;20042;-59
2023/12/22 07:05:09;;;;;;;2.95;0.90;;;;;;;;;;8239893;28;20300;-60
2023/12/22 07:09:12;;;;;;;4.60;1.20;;;;;;;;;;8239574;28;20029;-60
2023/12/22 07:13:12;;;;;;;5.20;0.80;;;;;;;;;;8236340;28;20026;-59
2023/12/22 07:17:12;;;;;;;3.90;0.93;;;;;;;;;;8226425;28;21177;-60
2023/12/22 07:21:16;;;;;;;1.52;0.63;;;;;;;;;;8230098;28;20376;-60
2023/12/22 07:25:19;;;;;;;4.60;0.90;;;;;;;;;;8231307;28;20588;-60
2023/12/22 07:29:19;;;;;;;1.02;0.70;;;;;;;;;;8230448;28;20025;-58
2023/12/22 07:33:19;;;;;;;2.05;1.20;;;;;;;;;;8241599;28;20033;-59
2023/12/22 07:37:19;;;;;;;2.40;0.73;;;;;;;;;;8246542;28;20547;-59
2023/12/22 07:41:20;;;;;;;1.45;0.57;;;;;;;;;;8240017;28;20041;-60
2023/12/22 07:45:20;;;;;;;1.33;0.68;;;;;;;;;;8243069;28;20079;-59
2023/12/22 07:49:20;;;;;;;1.25;0.65;;;;;;;;;;8243581;28;20110;-59
2023/12/22 07:53:21;;;;;;;2.58;0.68;;;;;;;;;;8237623;28;20061;-59
2023/12/22 07:57:21;;;;;;;0.95;0.60;;;;;;;;;;8230395;28;20018;-58
2023/12/22 08:01:21;;;;;;;1.43;0.60;;;;;;;;;;8225461;28;20046;-59
2023/12/22 08:05:21;;;;;;;1.85;0.60;;;;;;;;;;8223036;28;20465;-58
2023/12/22 08:09:22;;;;;;;1.42;0.70;;;;;;;;;;8229263;28;20028;-59
2023/12/22 08:13:23;;;;;;;4.28;1.02;;;;;;;;;;8230761;28;20036;-59
2023/12/22 08:17:23;;;;;;;3.35;1.10;;;;;;;;;;8227559;28;20065;-58
2023/12/22 08:21:23;;;;;;;4.55;1.15;;;;;;;;;;8228808;28;20022;-58
2023/12/22 08:25:23;;;;;;;7.32;1.83;;;;;;;;;;8229014;28;21055;-58
2023/12/22 08:29:23;;;;;;;5.00;1.40;;;;;;;;;;8229480;28;20037;-58
2023/12/22 08:33:24;;;;;;;4.80;1.50;;;;;;;;;;8225554;28;20047;-58
2023/12/22 08:37:24;;;;;;;5.90;1.83;;;;;;;;;;8228679;28;20120;-58
2023/12/22 08:41:24;;;;;;;9.38;2.15;;;;;;;;;;8227918;28;20092;-58
2023/12/22 08:45:26;;;;;;;11.40;2.22;;;;;;;;;;8231550;28;20034;-59
2023/12/22 08:49:26;;;;;;;10.82;2.33;;;;;;;;;;8227125;28;20025;-59
2023/12/22 08:53:29;;;;;;;10.80;2.47;;;;;;;;;;8216734;28;20022;-58
2023/12/22 08:57:30;;;;;;;9.40;2.22;;;;;;;;;;8226071;28;20033;-59
2023/12/22 09:01:30;;;;;;;13.15;2.20;;;;;;;;;;8227037;28;20075;-59
2023/12/22 09:05:30;;;;;;;12.88;2.47;;;;;;;;;;8227015;28;20022;-59
2023/12/22 09:09:30;;;;;;;7.93;2.13;;;;;;;;;;8225820;28;20765;-59
2023/12/22 09:13:31;;;;;;;12.43;2.83;;;;;;;;;;8237906;28;20033;-59
2023/12/22 09:17:32;;;;;;;10.38;2.30;;;;;;;;;;8241619;28;20049;-59
2023/12/22 09:21:32;;;;;;;14.73;2.67;;;;;;;;;;8241241;28;20048;-59
2023/12/22 09:25:32;;;;;;;14.20;2.45;;;;;;;;;;8248022;28;20010;-59
2023/12/22 09:29:33;;;;;;;13.82;2.63;;;;;;;;;;8247421;28;20030;-58
2023/12/22 09:33:33;;;;;;;12.40;2.53;;;;;;;;;;8236098;28;20045;-59
2023/12/22 09:37:34;;;;;;;14.63;2.70;;;;;;;;;;8233146;28;20084;-59
2023/12/22 09:41:34;;;;;;;12.43;2.80;;;;;;;;;;8232466;28;20040;-58
2023/12/22 09:45:35;;;;;;;10.38;2.70;;;;;;;;;;8230709;28;20788;-59
2023/12/22 09:49:35;;;;;;;12.52;2.92;;;;;;;;;;8230188;28;20087;-59
2023/12/22 09:53:37;;;;;;;13.77;3.13;;;;;;;;;;8229724;28;21054;-58
2023/12/22 09:57:39;;;;;;;19.45;3.20;;;;;;;;;;8231267;28;20029;-59
2023/12/22 10:01:42;;;;;;;12.75;2.80;;;;;;;;;;8232134;28;20146;-59
2023/12/22 10:05:43;;;;;;;15.67;2.87;;;;;;;;;;8231177;28;20112;-59
2023/12/22 10:09:45;;;;;;;12.73;2.60;;;;;;;;;;8223192;28;20147;-59
2023/12/22 10:13:45;;;;;;;13.60;3.00;;;;;;;;;;8228648;28;20096;-59
2023/12/22 10:17:46;;;;;;;11.32;2.58;;;;;;;;;;8226073;28;20088;-59
2023/12/22 10:21:48;;;;;;;12.95;2.40;;;;;;;;;;8225562;28;20030;-58
2023/12/22 10:25:49;;;;;;;12.13;2.10;;;;;;;;;;8227734;28;20037;-59
2023/12/22 10:29:50;;;;;;;14.68;3.08;;;;;;;;;;8228242;28;20030;-59
2023/12/22 10:33:50;;;;;;;10.45;2.67;;;;;;;;;;8229700;28;20533;-59
2023/12/22 10:37:53;;;;;;;10.80;2.17;;;;;;;;;;8230599;28;20026;-59
2023/12/22 10:41:53;;;;;;;8.93;2.05;;;;;;;;;;8232591;28;20038;-60
2023/12/22 10:45:54;;;;;;;9.85;2.55;;;;;;;;;;8235266;28;20037;-60
2023/12/22 10:49:54;;;;;;;9.60;1.90;;;;;;;;;;8237619;28;20817;-59
2023/12/22 10:53:54;;;;;;;7.97;2.33;;;;;;;;;;8232959;28;21445;-60
2023/12/22 10:57:54;;;;;;;13.07;2.30;;;;;;;;;;8232165;28;20141;-60
2023/12/22 11:01:56;;;;;;;7.70;2.10;;;;;;;;;;8224265;28;20042;-60
2023/12/22 11:05:57;;;;;;;14.68;2.90;;;;;;;;;;8234700;28;20272;-60
2023/12/22 11:10:00;;;;;;;9.25;1.77;;;;;;;;;;8226927;28;20514;-60
2023/12/22 11:14:00;;;;;;;11.00;2.42;;;;;;;;;;8230462;28;20427;-59
2023/12/22 11:18:01;;;;;;;13.40;2.35;;;;;;;;;;8229765;28;20774;-59
2023/12/22 11:22:01;;;;;;;10.32;1.88;;;;;;;;;;8225694;28;20032;-60
2023/12/22 11:26:02;;;;;;;10.23;2.03;;;;;;;;;;8225949;28;20087;-60
2023/12/22 11:30:04;;;;;;;7.85;2.05;;;;;;;;;;8229765;28;20275;-59
2023/12/22 11:34:04;;;;;;;7.55;1.95;;;;;;;;;;8227603;28;20064;-60
2023/12/22 11:38:05;;;;;;;4.38;1.50;;;;;;;;;;8225761;28;20038;-60
2023/12/22 11:42:07;;;;;;;5.55;1.35;;;;;;;;;;8223427;28;20624;-58
2023/12/22 11:46:08;;;;;;;7.57;1.55;;;;;;;;;;8223802;28;20030;-59
2023/12/22 11:50:09;;;;;;;4.25;1.10;;;;;;;;;;8227675;28;20053;-59
2023/12/22 11:54:28;;;;;;;5.03;1.40;;;;;;;;;;8227408;28;20196;-59
2023/12/22 11:58:38;;;;;;;2.80;1.10;;;;;;;;;;8224069;28;22371;-59
2023/12/22 12:02:40;;;;;;;3.30;1.00;;;;;;;;;;8220822;28;20075;-59
2023/12/22 12:06:41;;;;;;;5.57;1.17;;;;;;;;;;8225901;28;20026;-66
2023/12/22 12:10:52;;;;;;;1.25;0.70;;;;;;;;;;8221485;28;20018;-59
2023/12/22 12:14:56;;;;;;;4.15;1.05;;;;;;;;;;8226099;28;20028;-59
2023/12/22 12:18:58;;;;;;;1.70;0.70;;;;;;;;;;8222206;28;20049;-59
2023/12/22 12:22:59;;;;;;;3.03;0.90;;;;;;;;;;8223094;28;20681;-58
2023/12/22 12:26:59;;;;;;;2.33;0.75;;;;;;;;;;8223091;28;20660;-58
2023/12/22 12:31:00;;;;;;;5.13;0.90;;;;;;;;;;8222526;28;20187;-58
2023/12/22 12:35:00;;;;;;;1.27;0.70;;;;;;;;;;8230660;28;20030;-58
2023/12/22 12:39:14;;;;;;;0.77;0.60;;;;;;;;;;8227744;28;20077;-58
2023/12/22 12:43:15;;;;;;;1.60;0.73;;;;;;;;;;8225669;28;20030;-59
2023/12/22 12:47:15;;;;;;;1.40;0.80;;;;;;;;;;8228928;28;20038;-59
2023/12/22 12:51:15;;;;;;;1.20;0.60;;;;;;;;;;8228137;28;20679;-58
2023/12/22 12:55:18;;;;;;;1.40;0.68;;;;;;;;;;8225406;28;20044;-58
2023/12/22 12:59:19;;;;;;;0.75;0.63;;;;;;;;;;8226012;28;20021;-59
2023/12/22 13:03:22;;;;;;;0.50;0.50;;;;;;;;;;8246763;28;20077;-58
2023/12/22 13:07:26;;;;;;;0.70;0.60;;;;;;;;;;8250771;28;20032;-59
2023/12/22 13:11:26;;;;;;;1.63;0.60;;;;;;;;;;8252186;28;20029;-60
2023/12/22 13:15:27;;;;;;;0.50;0.50;;;;;;;;;;8236327;28;20042;-59
2023/12/22 13:19:27;;;;;;;0.40;0.40;;;;;;;;;;8233461;28;21776;-60
2023/12/22 13:23:27;;;;;;;1.27;0.77;;;;;;;;;;8238902;28;20026;-60
2023/12/22 13:27:27;;;;;;;0.85;0.60;;;;;;;;;;8236943;28;20034;-59
2023/12/22 13:31:30;;;;;;;0.43;0.43;;;;;;;;;;8235740;28;20045;-58
2023/12/22 13:35:30;;;;;;;0.50;0.50;;;;;;;;;;8227652;28;20277;-59
2023/12/22 13:39:31;;;;;;;0.65;0.50;;;;;;;;;;8231914;28;20144;-58
2023/12/22 13:43:31;;;;;;;0.40;0.40;;;;;;;;;;8227696;28;20026;-59
2023/12/22 13:47:31;;;;;;;1.25;0.60;;;;;;;;;;8230946;28;20278;-59
2023/12/22 13:51:59;;;;;;;1.75;0.80;;;;;;;;;;8229185;28;20022;-58
2023/12/22 13:55:59;;;;;;;0.50;0.50;;;;;;;;;;8225015;28;20045;-59
2023/12/22 14:00:00;;;;;;;0.50;0.50;;;;;;;;;;8224214;28;20028;-58
2023/12/22 14:04:00;;;;;;;0.55;0.40;;;;;;;;;;8235239;28;20096;-60
2023/12/22 14:08:01;;;;;;;0.80;0.50;;;;;;;;;;8230253;28;20022;-60
2023/12/22 14:12:01;;;;;;;1.65;0.70;;;;;;;;;;8228189;28;20133;-60
2023/12/22 14:16:01;;;;;;;0.40;0.40;;;;;;;;;;8230626;28;20099;-61
2023/12/22 14:20:02;;;;;;;0.80;0.40;;;;;;;;;;8230746;28;20487;-60
2023/12/22 14:24:03;;;;;;;0.45;0.45;;;;;;;;;;8242625;28;20300;-58
2023/12/22 14:28:03;;;;;;;0.30;0.30;;;;;;;;;;8237924;28;20985;-59
2023/12/22 14:32:08;;;;;;;1.23;0.50;;;;;;;;;;8241048;28;20057;-59
2023/12/22 14:36:08;;;;;;;;;;;;;;;;;;8247635;28;20095;-59
2023/12/22 14:40:08;;;;;;;0.73;0.70;;;;;;;;;;8242632;28;20859;-60
2023/12/22 14:44:09;;;;;;;0.43;0.43;;;;;;;;;;8239451;28;20041;-60
2023/12/22 14:48:09;;;;;;;0.45;0.40;;;;;;;;;;8237696;28;20034;-60
2023/12/22 14:52:09;;;;;;;1.38;0.40;;;;;;;;;;8243283;28;20017;-60
2023/12/22 14:56:10;;;;;;;0.40;0.40;;;;;;;;;;8239008;28;20037;-60
2023/12/22 15:00:10;;;;;;;0.65;0.40;;;;;;;;;;8241313;28;20097;-60
2023/12/22 15:04:10;;;;;;;0.50;0.50;;;;;;;;;;8244718;28;20034;-60
2023/12/22 15:08:11;;;;;;;0.50;0.50;;;;;;;;;;8243887;28;20177;-60
2023/12/22 15:12:17;;;;;;;0.77;0.50;;;;;;;;;;8233998;28;20279;-59
2023/12/22 15:16:17;;;;;;;0.50;0.50;;;;;;;;;;8226603;28;20107;-59
2023/12/22 15:20:18;;;;;;;0.95;0.50;;;;;;;;;;8223200;28;20025;-59
2023/12/22 15:24:18;;;;;;;0.60;0.60;;;;;;;;;;8226926;28;20026;-59
2023/12/22 15:28:18;;;;;;;0.75;0.60;;;;;;;;;;8222604;28;20028;-59
2023/12/22 15:32:19;;;;;;;1.95;0.77;;;;;;;;;;8224926;28;20041;-59
2023/12/22 15:36:19;;;;;;;1.55;0.60;;;;;;;;;;8228487;28;20018;-59
2023/12/22 15:40:19;;;;;;;0.50;0.50;;;;;;;;;;8228061;28;20017;-59
2023/12/22 15:44:19;;;;;;;1.65;0.60;;;;;;;;;;8232598;28;20555;-59
2023/12/22 15:48:20;;;;;;;0.60;0.50;;;;;;;;;;8230682;28;20033;-60
2023/12/22 15:52:20;;;;;;;0.63;0.63;;;;;;;;;;8235313;28;20277;-59
2023/12/22 15:56:20;;;;;;;0.70;0.70;;;;;;;;;;8244876;28;20303;-59
2023/12/22 16:00:20;;;;;;;0.40;0.40;;;;;;;;;;8247998;28;20064;-58
2023/12/22 16:04:21;;;;;;;1.92;0.70;;;;;;;;;;8246204;28;20088;-59
2023/12/22 16:08:21;;;;;;;0.82;0.50;;;;;;;;;;8246600;28;20013;-58
2023/12/22 16:12:21;;;;;;;0.60;0.60;;;;;;;;;;8244867;28;20026;-58
2023/12/22 16:16:22;;;;;;;1.33;0.60;;;;;;;;;;8245512;28;20153;-59
2023/12/22 16:20:22;;;;;;;0.98;0.60;;;;;;;;;;8245193;28;20030;-58
2023/12/22 16:24:22;;;;;;;0.55;0.55;;;;;;;;;;8229079;28;20026;-58
2023/12/22 16:28:22;;;;;;;0.50;0.50;;;;;;;;;;8230381;28;20022;-58
2023/12/22 16:32:23;;;;;;;1.48;0.60;;;;;;;;;;8235129;28;20285;-59
2023/12/22 16:36:23;;;;;;;1.80;0.50;;;;;;;;;;8249902;28;20022;-58
2023/12/22 16:40:24;;;;;;;0.50;0.50;;;;;;;;;;8249512;28;20482;-59
2023/12/22 16:44:24;;;;;;;0.40;0.40;;;;;;;;;;8247635;28;20375;-58
2023/12/22 16:48:24;;;;;;;1.20;0.60;;;;;;;;;;8254803;28;20153;-57
2023/12/22 16:52:25;;;;;;;0.55;0.52;;;;;;;;;;8250656;28;20030;-58
2023/12/22 16:56:26;;;;;;;0.50;0.50;;;;;;;;;;8253063;28;20026;-58
2023/12/22 17:00:26;;;;;;;0.60;0.60;;;;;;;;;;8251525;28;20042;-58
2023/12/22 17:04:26;;;;;;;0.50;0.50;;;;;;;;;;8234723;28;22513;-58
2023/12/22 17:08:26;;;;;;;0.40;0.40;;;;;;;;;;8234608;28;21394;-60
2023/12/22 17:12:27;;;;;;;0.52;0.52;;;;;;;;;;8234875;28;20042;-58
2023/12/22 17:16:27;;;;;;;0.43;0.43;;;;;;;;;;8236068;28;20176;-58
2023/12/22 17:20:27;;;;;;;0.50;0.50;;;;;;;;;;8235138;28;20029;-59
2023/12/22 17:24:27;;;;;;;0.43;0.40;;;;;;;;;;8236183;28;20030;-59
2023/12/22 17:28:28;;;;;;;0.55;0.55;;;;;;;;;;8235181;28;20030;-59
2023/12/22 17:32:28;;;;;;;0.43;0.43;;;;;;;;;;8232971;28;20179;-58
2023/12/22 17:36:32;;;;;;;0.50;0.50;;;;;;;;;;8231792;28;21061;-58
2023/12/22 17:40:32;;;;;;;0.52;0.50;;;;;;;;;;8232923;28;20280;-58
2023/12/22 17:44:32;;;;;;;0.65;0.55;;;;;;;;;;8245456;28;20022;-59
2023/12/22 17:48:32;;;;;;;0.88;0.60;;;;;;;;;;8248238;28;20060;-58
2023/12/22 17:52:32;;;;;;;1.63;0.50;;;;;;;;;;8239466;28;20052;-59
2023/12/22 17:56:32;;;;;;;0.60;0.60;;;;;;;;;;8233628;28;20108;-59
2023/12/22 18:00:33;;;;;;;1.30;0.47;;;;;;;;;;8232263;28;20108;-59
2023/12/22 18:04:33;;;;;;;0.75;0.60;;;;;;;;;;8235457;28;20110;-59
2023/12/22 18:08:33;;;;;;;0.50;0.50;;;;;;;;;;8228926;28;20036;-59
2023/12/22 18:12:34;;;;;;;1.50;0.50;;;;;;;;;;8227168;28;20022;-59
2023/12/22 18:16:41;;;;;;;1.23;0.50;;;;;;;;;;8228537;28;20034;-59
2023/12/22 18:20:41;;;;;;;1.10;0.60;;;;;;;;;;8233039;28;20098;-59
2023/12/22 18:24:42;;;;;;;0.53;0.53;;;;;;;;;;8230865;28;20034;-59
2023/12/22 18:28:42;;;;;;;0.60;0.60;;;;;;;;;;8229595;28;20014;-58
2023/12/22 18:32:44;;;;;;;1.02;0.60;;;;;;;;;;8227645;28;20052;-59
2023/12/22 18:36:44;;;;;;;1.25;0.60;;;;;;;;;;8231801;28;20097;-59
2023/12/22 18:40:44;;;;;;;0.97;0.63;;;;;;;;;;8230246;28;20042;-59
2023/12/22 18:44:44;;;;;;;0.70;0.60;;;;;;;;;;8230833;28;20042;-58
2023/12/22 18:48:45;;;;;;;0.75;0.60;;;;;;;;;;8228669;28;20045;-59
2023/12/22 18:52:45;;;;;;;1.02;0.80;;;;;;;;;;8230527;28;20069;-59
2023/12/22 18:56:48;;;;;;;0.88;0.70;;;;;;;;;;8228873;28;20049;-59
2023/12/22 19:00:48;;;;;;;0.70;0.60;;;;;;;;;;8224232;28;20050;-60
2023/12/22 19:04:49;;;;;;;0.90;0.50;;;;;;;;;;8225847;28;20394;-58
2023/12/22 19:08:49;;;;;;;0.60;0.60;;;;;;;;;;8229244;28;20121;-59
2023/12/22 19:12:49;;;;;;;1.92;0.77;;;;;;;;;;8217278;28;20175;-58
2023/12/22 19:16:50;;;;;;;0.50;0.50;;;;;;;;;;8217576;28;20045;-58
2023/12/22 19:20:50;;;;;;;1.15;0.60;;;;;;;;;;8225347;28;20713;-59
2023/12/22 19:24:53;;;;;;;0.60;0.60;;;;;;;;;;8223710;28;20058;-59
2023/12/22 19:28:54;;;;;;;0.40;0.40;;;;;;;;;;8224236;28;20475;-59
2023/12/22 19:32:55;;;;;;;0.50;0.50;;;;;;;;;;8221085;28;20033;-59
2023/12/22 19:36:55;;;;;;;0.55;0.50;;;;;;;;;;8225567;28;20762;-59
2023/12/22 19:40:55;;;;;;;0.40;0.40;;;;;;;;;;8223094;28;20030;-59
2023/12/22 19:44:56;;;;;;;0.83;0.57;;;;;;;;;;8228531;28;20056;-59
2023/12/22 19:48:56;;;;;;;0.50;0.50;;;;;;;;;;8228842;28;20121;-59
2023/12/22 19:52:57;;;;;;;0.50;0.50;;;;;;;;;;8228121;28;20025;-58
2023/12/22 19:56:57;;;;;;;0.50;0.50;;;;;;;;;;8225322;28;20038;-60
2023/12/22 20:00:58;;;;;;;0.50;0.50;;;;;;;;;;8218401;28;20038;-58
2023/12/22 20:04:58;;;;;;;1.03;0.50;;;;;;;;;;8219972;28;20365;-59
2023/12/22 20:08:58;;;;;;;1.50;0.60;;;;;;;;;;8220258;28;20118;-58
2023/12/22 20:12:58;;;;;;;1.75;0.70;;;;;;;;;;8226461;28;20029;-59
2023/12/22 20:16:58;;;;;;;0.90;0.60;;;;;;;;;;8235803;28;20041;-58
2023/12/22 20:20:59;;;;;;;1.40;0.90;;;;;;;;;;8233782;28;20061;-59
2023/12/22 20:24:59;;;;;;;1.60;1.10;;;;;;;;;;8234805;28;20079;-59
2023/12/22 20:28:59;;;;;;;1.20;0.77;;;;;;;;;;8234611;28;20029;-59
2023/12/22 20:33:00;;;;;;;1.00;0.80;;;;;;;;;;8219414;28;20108;-57
2023/12/22 20:37:00;;;;;;;1.02;0.73;;;;;;;;;;8216023;28;20018;-59
2023/12/22 20:41:00;;;;;;;2.40;0.90;;;;;;;;;;8218315;28;20479;-59
2023/12/22 20:45:00;;;;;;;1.05;0.90;;;;;;;;;;8216955;28;20057;-59
2023/12/22 20:49:03;;;;;;;1.50;0.90;;;;;;;;;;8217426;28;20038;-58
2023/12/22 20:53:03;;;;;;;3.83;0.98;;;;;;;;;;8220191;28;20280;-59
2023/12/22 20:57:07;;;;;;;3.47;1.10;;;;;;;;;;8217770;28;20030;-58
2023/12/22 21:01:08;;;;;;;1.52;0.80;;;;;;;;;;8217565;28;20033;-57
2023/12/22 21:05:10;;;;;;;1.27;0.70;;;;;;;;;;8219165;28;20034;-58
2023/12/22 21:09:11;;;;;;;2.38;0.70;;;;;;;;;;8219905;28;20068;-58
2023/12/22 21:13:11;;;;;;;4.82;0.80;;;;;;;;;;8216124;28;20056;-59
2023/12/22 21:17:11;;;;;;;1.90;0.75;;;;;;;;;;8223778;28;20038;-59
2023/12/22 21:21:11;;;;;;;2.13;0.80;;;;;;;;;;8223388;28;20112;-59
2023/12/22 21:25:11;;;;;;;9.27;1.38;;;;;;;;;;8232245;28;20277;-60
2023/12/22 21:29:12;;;;;;;0.83;0.70;;;;;;;;;;8227426;28;20014;-58
2023/12/22 21:33:12;;;;;;;0.77;0.75;;;;;;;;;;8231693;28;20335;-59
2023/12/22 21:37:12;;;;;;;2.50;0.95;;;;;;;;;;8230860;28;20029;-57
2023/12/22 21:41:30;;;;;;;1.73;0.95;;;;;;;;;;8229223;28;20030;-59
2023/12/22 21:45:30;;;;;;;2.40;0.90;;;;;;;;;;8228941;28;20053;-59
2023/12/22 21:49:31;;;;;;;2.15;0.88;;;;;;;;;;8232574;28;20038;-59
2023/12/22 21:53:31;;;;;;;4.30;1.02;;;;;;;;;;8232031;28;20037;-59
2023/12/22 21:57:32;;;;;;;1.42;0.90;;;;;;;;;;8231370;28;20061;-59
2023/12/22 22:01:33;;;;;;;4.05;1.38;;;;;;;;;;8228345;28;20133;-59
2023/12/22 22:05:33;;;;;;;2.65;1.25;;;;;;;;;;8223815;28;20488;-59
2023/12/22 22:09:34;;;;;;;1.42;1.00;;;;;;;;;;8228890;28;20061;-59
2023/12/22 22:13:34;;;;;;;1.77;0.95;;;;;;;;;;8230339;28;20029;-59
2023/12/22 22:17:34;;;;;;;2.10;0.93;;;;;;;;;;8233918;28;20101;-60
2023/12/22 22:21:38;;;;;;;3.75;1.30;;;;;;;;;;8228190;28;20117;-58
2023/12/22 22:25:38;;;;;;;3.10;1.50;;;;;;;;;;8227829;28;20026;-57
2023/12/22 22:29:40;;;;;;;2.45;1.30;;;;;;;;;;8230491;28;20666;-58
2023/12/22 22:33:45;;;;;;;2.75;1.10;;;;;;;;;;8239324;28;20030;-58
2023/12/22 22:37:45;;;;;;;3.72;1.20;;;;;;;;;;8247376;28;20037;-58
2023/12/22 22:41:46;;;;;;;5.63;1.15;;;;;;;;;;8245989;28;20200;-58
2023/12/22 22:45:46;;;;;;;2.72;1.00;;;;;;;;;;8242922;28;20049;-58
2023/12/22 22:49:46;;;;;;;1.73;1.10;;;;;;;;;;8251030;28;20101;-58
2023/12/22 22:53:47;;;;;;;2.53;1.00;;;;;;;;;;8233049;28;20899;-58
2023/12/22 22:57:48;;;;;;;2.20;0.93;;;;;;;;;;8229969;28;20030;-59
2023/12/22 23:01:48;;;;;;;1.42;0.90;;;;;;;;;;8228178;28;20061;-59
2023/12/22 23:05:50;;;;;;;3.13;1.07;;;;;;;;;;8228439;28;20056;-58
2023/12/22 23:09:50;;;;;;;3.30;1.05;;;;;;;;;;8226625;28;20265;-59
2023/12/22 23:13:50;;;;;;;2.27;0.90;;;;;;;;;;8229785;28;20028;-58
2023/12/22 23:17:50;;;;;;;3.13;1.15;;;;;;;;;;8219566;28;20285;-58
2023/12/22 23:21:50;;;;;;;1.27;1.00;;;;;;;;;;8233062;28;20026;-59
2023/12/22 23:25:51;;;;;;;2.20;1.10;;;;;;;;;;8252134;28;20025;-58
2023/12/22 23:29:51;;;;;;;2.65;1.08;;;;;;;;;;8246049;28;20035;-57
2023/12/22 23:33:51;;;;;;;2.38;1.00;;;;;;;;;;8248844;28;20115;-58
2023/12/22 23:37:52;;;;;;;3.20;1.00;;;;;;;;;;8247064;28;20104;-58
2023/12/22 23:41:53;;;;;;;1.33;0.80;;;;;;;;;;8214521;28;20080;-59
2023/12/22 23:45:53;;;;;;;3.55;0.88;;;;;;;;;;8185742;28;20434;-58
2023/12/22 23:49:54;;;;;;;3.00;0.90;;;;;;;;;;8199002;28;20096;-58
2023/12/22 23:53:54;;;;;;;1.23;0.80;;;;;;;;;;8181865;28;20018;-58
2023/12/22 23:57:54;;;;;;;1.63;0.80;;;;;;;;;;8192778;28;20364;-58
